Time;durP1;ratioP1;P1;durP2;ratioP2;P2;SDS_P1;SDS_P2;PMS_P1;PMS_P2;Temp;Humidity;BMP_temperature;BMP_pressure;BME280_temperature;BME280_humidity;BME280_pressure;Samples;Min_cycle;Max_cycle;Signal;HPM_P1;HPM_P2
2023/03/08 00:00:16;;;;;;;9.43;3.88;;;;;;;;;;5030187;28;20199;-76
2023/03/08 00:02:43;;;;;;;4.60;3.58;;;;;;;;;;5018861;28;20669;-75
2023/03/08 00:05:11;;;;;;;9.43;5.05;;;;;;;;;;5028661;28;20215;-75
2023/03/08 00:07:38;;;;;;;3.72;3.05;;;;;;;;;;5028262;28;20216;-75
2023/03/08 00:10:07;;;;;;;5.93;4.25;;;;;;;;;;5030181;28;20207;-75
2023/03/08 00:12:34;;;;;;;8.05;4.40;;;;;;;;;;5024371;28;20599;-76
2023/03/08 00:15:01;;;;;;;6.15;4.15;;;;;;;;;;5028760;28;20195;-75
2023/03/08 00:17:28;;;;;;;7.22;3.63;;;;;;;;;;5024963;28;20226;-75
2023/03/08 00:19:56;;;;;;;7.50;4.32;;;;;;;;;;5019114;28;20208;-75
2023/03/08 00:22:23;;;;;;;7.88;3.95;;;;;;;;;;5030076;28;20606;-75
2023/03/08 00:24:50;;;;;;;5.75;3.78;;;;;;;;;;5030770;28;20687;-75
2023/03/08 00:27:18;;;;;;;18.45;5.85;;;;;;;;;;5026249;28;20334;-75
2023/03/08 00:29:45;;;;;;;7.43;5.18;;;;;;;;;;5031390;28;20222;-75
2023/03/08 00:32:15;;;;;;;8.98;4.82;;;;;;;;;;5027388;28;20220;-75
2023/03/08 00:34:45;;;;;;;7.18;4.35;;;;;;;;;;5030999;28;20278;-75
2023/03/08 00:37:12;;;;;;;10.90;5.25;;;;;;;;;;5028292;28;20235;-75
2023/03/08 00:39:40;;;;;;;7.90;4.97;;;;;;;;;;5031481;28;20196;-75
2023/03/08 00:42:07;;;;;;;8.50;4.53;;;;;;;;;;5025880;28;20711;-75
2023/03/08 00:44:35;;;;;;;10.50;5.13;;;;;;;;;;5024027;28;20202;-76
2023/03/08 00:47:02;;;;;;;12.20;5.05;;;;;;;;;;5030178;28;20246;-75
2023/03/08 00:49:29;;;;;;;8.23;5.30;;;;;;;;;;5031060;28;20204;-75
2023/03/08 00:51:56;;;;;;;5.78;3.67;;;;;;;;;;5032197;28;20230;-75
2023/03/08 00:54:23;;;;;;;7.25;5.07;;;;;;;;;;5026510;28;20573;-75
2023/03/08 00:56:50;;;;;;;8.50;4.63;;;;;;;;;;5034019;28;20664;-75
2023/03/08 00:59:17;;;;;;;6.97;5.22;;;;;;;;;;5030486;28;20906;-75
2023/03/08 01:01:46;;;;;;;9.65;5.55;;;;;;;;;;5033733;28;20199;-76
2023/03/08 01:04:13;;;;;;;9.90;6.13;;;;;;;;;;5015323;28;20196;-75
2023/03/08 01:06:42;;;;;;;9.93;5.72;;;;;;;;;;5022748;28;20229;-74
2023/03/08 01:09:09;;;;;;;9.48;5.75;;;;;;;;;;5033920;28;20687;-75
2023/03/08 01:11:36;;;;;;;8.85;5.65;;;;;;;;;;5033268;28;20242;-75
2023/03/08 01:14:04;;;;;;;9.52;5.20;;;;;;;;;;5027336;28;20531;-76
2023/03/08 01:16:32;;;;;;;8.48;5.63;;;;;;;;;;5034307;28;20191;-75
2023/03/08 01:19:02;;;;;;;12.43;5.95;;;;;;;;;;5024856;28;20315;-76
2023/03/08 01:21:30;;;;;;;8.70;4.30;;;;;;;;;;5032398;28;20640;-76
2023/03/08 01:23:57;;;;;;;7.90;5.40;;;;;;;;;;5030743;28;20698;-75
2023/03/08 01:26:25;;;;;;;9.57;4.95;;;;;;;;;;5032624;28;20206;-75
2023/03/08 01:28:53;;;;;;;13.02;6.45;;;;;;;;;;5025230;28;20228;-75
2023/03/08 01:31:21;;;;;;;11.57;5.88;;;;;;;;;;5026689;28;20227;-75
2023/03/08 01:33:48;;;;;;;10.35;5.18;;;;;;;;;;5016418;28;20573;-75
2023/03/08 01:36:18;;;;;;;8.15;4.82;;;;;;;;;;5033470;28;20210;-75
2023/03/08 01:38:45;;;;;;;10.15;6.15;;;;;;;;;;5032230;28;20323;-75
2023/03/08 01:41:15;;;;;;;8.90;5.05;;;;;;;;;;5033204;28;20194;-75
2023/03/08 01:43:42;;;;;;;9.60;5.53;;;;;;;;;;5026072;28;20206;-75
2023/03/08 01:46:18;;;;;;;9.18;5.05;;;;;;;;;;5029818;28;20665;-75
2023/03/08 01:48:48;;;;;;;6.82;5.18;;;;;;;;;;5025993;28;20226;-75
2023/03/08 01:51:18;;;;;;;9.95;4.00;;;;;;;;;;5032579;28;20222;-75
2023/03/08 01:53:46;;;;;;;7.45;3.92;;;;;;;;;;5019298;28;20576;-75
2023/03/08 01:56:14;;;;;;;7.55;4.80;;;;;;;;;;5032677;28;20215;-76
2023/03/08 01:58:42;;;;;;;12.65;5.47;;;;;;;;;;5032563;28;20222;-75
2023/03/08 02:01:09;;;;;;;8.88;5.20;;;;;;;;;;5027269;28;20688;-75
2023/03/08 02:03:36;;;;;;;8.32;5.35;;;;;;;;;;5017915;28;20222;-75
2023/03/08 02:06:04;;;;;;;8.48;5.63;;;;;;;;;;5024212;28;20207;-75
2023/03/08 02:08:33;;;;;;;10.05;5.32;;;;;;;;;;5030329;28;20219;-75
2023/03/08 02:11:00;;;;;;;9.05;4.78;;;;;;;;;;5023349;28;20583;-75
2023/03/08 02:13:27;;;;;;;10.02;4.60;;;;;;;;;;5032370;28;20203;-76
2023/03/08 02:15:55;;;;;;;9.70;5.28;;;;;;;;;;5023220;28;20703;-75
2023/03/08 02:18:22;;;;;;;6.97;4.07;;;;;;;;;;5029017;28;20629;-76
2023/03/08 02:20:49;;;;;;;10.73;4.75;;;;;;;;;;5024581;28;20218;-75
2023/03/08 02:23:19;;;;;;;9.50;5.45;;;;;;;;;;5030026;28;20199;-76
2023/03/08 02:25:50;;;;;;;6.55;3.47;;;;;;;;;;5022655;28;20712;-75
2023/03/08 02:28:18;;;;;;;6.10;4.63;;;;;;;;;;5032408;28;20710;-75
2023/03/08 02:30:45;;;;;;;6.35;4.85;;;;;;;;;;5032752;28;20199;-75
2023/03/08 02:33:12;;;;;;;11.05;5.57;;;;;;;;;;5017624;28;20219;-75
2023/03/08 02:35:41;;;;;;;7.60;4.38;;;;;;;;;;5012225;28;20200;-75
2023/03/08 02:38:08;;;;;;;8.88;4.88;;;;;;;;;;5013166;28;20282;-75
2023/03/08 02:40:36;;;;;;;5.28;3.72;;;;;;;;;;5012379;28;20204;-76
2023/03/08 02:43:04;;;;;;;12.00;4.50;;;;;;;;;;5020434;28;20218;-75
2023/03/08 02:45:32;;;;;;;8.55;6.18;;;;;;;;;;5030478;28;20206;-75
2023/03/08 02:47:59;;;;;;;8.60;3.90;;;;;;;;;;5032409;28;20223;-76
2023/03/08 02:50:26;;;;;;;7.10;4.43;;;;;;;;;;5023115;28;20216;-75
2023/03/08 02:52:54;;;;;;;7.40;4.22;;;;;;;;;;5011110;28;20223;-75
2023/03/08 02:55:21;;;;;;;9.13;4.95;;;;;;;;;;5012950;28;20223;-75
2023/03/08 02:57:49;;;;;;;8.82;5.32;;;;;;;;;;5012514;28;20220;-76
2023/03/08 03:00:16;;;;;;;8.65;4.60;;;;;;;;;;5012879;28;20200;-75
2023/03/08 03:02:43;;;;;;;11.25;5.00;;;;;;;;;;5011564;28;20215;-76
2023/03/08 03:05:11;;;;;;;7.93;4.50;;;;;;;;;;5012514;28;20698;-75
2023/03/08 03:07:38;;;;;;;6.75;4.65;;;;;;;;;;5012149;28;20224;-74
2023/03/08 03:10:06;;;;;;;10.15;5.40;;;;;;;;;;5026331;28;20199;-74
2023/03/08 03:12:33;;;;;;;9.95;5.28;;;;;;;;;;5012530;28;20215;-75
2023/03/08 03:15:03;;;;;;;12.38;7.13;;;;;;;;;;5012609;28;20212;-75
2023/03/08 03:17:30;;;;;;;11.60;5.25;;;;;;;;;;5012020;28;20224;-74
2023/03/08 03:19:57;;;;;;;9.93;5.20;;;;;;;;;;5018721;28;20207;-74
2023/03/08 03:22:24;;;;;;;10.15;4.43;;;;;;;;;;5022035;28;20192;-75
2023/03/08 03:24:51;;;;;;;12.75;5.30;;;;;;;;;;5012282;28;20207;-75
2023/03/08 03:27:18;;;;;;;11.38;5.47;;;;;;;;;;5011665;28;20220;-74
2023/03/08 03:29:45;;;;;;;10.40;6.13;;;;;;;;;;5012045;28;20204;-75
2023/03/08 03:32:14;;;;;;;9.70;5.38;;;;;;;;;;5011096;28;20239;-74
2023/03/08 03:34:41;;;;;;;7.72;5.15;;;;;;;;;;5011916;28;20207;-75
2023/03/08 03:37:08;;;;;;;13.13;6.30;;;;;;;;;;5012033;28;20231;-74
2023/03/08 03:39:37;;;;;;;11.30;6.28;;;;;;;;;;5029308;28;20203;-75
2023/03/08 03:42:05;;;;;;;12.63;6.45;;;;;;;;;;5031755;28;20203;-75
2023/03/08 03:44:32;;;;;;;11.07;5.70;;;;;;;;;;5031998;28;20199;-75
2023/03/08 03:46:59;;;;;;;9.90;6.10;;;;;;;;;;5031672;28;20243;-74
2023/03/08 03:49:27;;;;;;;12.55;5.95;;;;;;;;;;5031848;28;20225;-75
2023/03/08 03:51:55;;;;;;;13.13;6.05;;;;;;;;;;5031385;28;20222;-75
2023/03/08 03:54:22;;;;;;;11.30;6.22;;;;;;;;;;5018193;28;20684;-74
2023/03/08 03:56:49;;;;;;;13.60;5.88;;;;;;;;;;5012154;28;20227;-75
2023/03/08 03:59:16;;;;;;;8.73;5.40;;;;;;;;;;5011731;28;20204;-74
2023/03/08 04:01:43;;;;;;;12.93;6.68;;;;;;;;;;5011386;28;20554;-75
2023/03/08 04:04:11;;;;;;;9.27;5.38;;;;;;;;;;5011171;28;20199;-74
2023/03/08 04:06:39;;;;;;;10.52;6.05;;;;;;;;;;5011730;28;20203;-75
2023/03/08 04:09:07;;;;;;;8.65;5.38;;;;;;;;;;5009926;28;20200;-75
2023/03/08 04:11:35;;;;;;;11.38;6.05;;;;;;;;;;5027177;28;20302;-74
2023/03/08 04:14:03;;;;;;;10.50;7.13;;;;;;;;;;5031511;28;20199;-74
2023/03/08 04:16:31;;;;;;;11.52;6.40;;;;;;;;;;5018196;28;20200;-74
2023/03/08 04:18:58;;;;;;;15.13;7.88;;;;;;;;;;5011711;28;20222;-75
2023/03/08 04:21:25;;;;;;;10.52;6.75;;;;;;;;;;5015945;28;20214;-74
2023/03/08 04:23:54;;;;;;;9.85;6.85;;;;;;;;;;5031677;28;20202;-74
2023/03/08 04:26:22;;;;;;;11.73;7.78;;;;;;;;;;5031266;28;20219;-74
2023/03/08 04:28:49;;;;;;;15.15;6.90;;;;;;;;;;5035205;28;20223;-75
2023/03/08 04:31:18;;;;;;;13.82;7.35;;;;;;;;;;5030185;28;20195;-74
2023/03/08 04:33:45;;;;;;;18.25;9.20;;;;;;;;;;5014068;28;20222;-74
2023/03/08 04:36:13;;;;;;;15.63;7.20;;;;;;;;;;5018284;28;20196;-74
2023/03/08 04:38:40;;;;;;;14.43;7.75;;;;;;;;;;5032443;28;20227;-75
2023/03/08 04:41:10;;;;;;;13.65;6.65;;;;;;;;;;5035147;28;20199;-74
2023/03/08 04:43:38;;;;;;;15.13;8.55;;;;;;;;;;5034297;28;20294;-74
2023/03/08 04:46:06;;;;;;;19.52;7.95;;;;;;;;;;5034301;28;20652;-74
2023/03/08 04:48:33;;;;;;;13.90;6.45;;;;;;;;;;5034374;28;20222;-74
2023/03/08 04:51:01;;;;;;;17.13;9.55;;;;;;;;;;5034996;28;20199;-74
2023/03/08 04:53:29;;;;;;;17.88;7.80;;;;;;;;;;5034562;28;20600;-74
2023/03/08 04:55:58;;;;;;;14.75;8.23;;;;;;;;;;5033515;28;20199;-74
2023/03/08 04:58:26;;;;;;;17.52;8.20;;;;;;;;;;5017240;28;20298;-75
2023/03/08 05:00:53;;;;;;;15.30;8.45;;;;;;;;;;5034491;28;20571;-74
2023/03/08 05:03:21;;;;;;;17.00;7.75;;;;;;;;;;5022129;28;20196;-75
2023/03/08 05:05:48;;;;;;;19.05;9.60;;;;;;;;;;5014814;28;20199;-75
2023/03/08 05:08:15;;;;;;;17.35;8.38;;;;;;;;;;5014256;28;20231;-74
2023/03/08 05:10:47;;;;;;;13.38;6.03;;;;;;;;;;5014255;28;20199;-75
2023/03/08 05:13:15;;;;;;;12.18;6.60;;;;;;;;;;5014337;28;20212;-74
2023/03/08 05:15:43;;;;;;;15.50;8.07;;;;;;;;;;5031981;28;20466;-75
2023/03/08 05:18:10;;;;;;;17.27;8.73;;;;;;;;;;5034462;28;20219;-75
2023/03/08 05:20:37;;;;;;;16.88;10.43;;;;;;;;;;5034151;28;20195;-75
2023/03/08 05:23:04;;;;;;;17.08;9.35;;;;;;;;;;5033581;28;20203;-75
2023/03/08 05:25:32;;;;;;;24.55;8.98;;;;;;;;;;5027693;28;20200;-75
2023/03/08 05:27:59;;;;;;;16.20;8.00;;;;;;;;;;5014203;28;20713;-74
2023/03/08 05:30:26;;;;;;;16.00;7.88;;;;;;;;;;5020809;28;20195;-75
2023/03/08 05:32:55;;;;;;;14.93;8.32;;;;;;;;;;5033806;28;20219;-74
2023/03/08 05:35:23;;;;;;;12.50;5.95;;;;;;;;;;5033570;28;20261;-74
2023/03/08 05:37:50;;;;;;;13.93;7.13;;;;;;;;;;5048747;23;20222;-72
2023/03/08 05:40:17;;;;;;;17.55;7.82;;;;;;;;;;5053969;28;20206;-72
2023/03/08 05:42:44;;;;;;;9.80;6.10;;;;;;;;;;5038831;28;20196;-72
2023/03/08 05:45:11;;;;;;;14.00;7.80;;;;;;;;;;5033159;28;20199;-73
2023/03/08 05:47:38;;;;;;;14.68;7.82;;;;;;;;;;5046307;28;20274;-73
2023/03/08 05:50:07;;;;;;;17.08;8.32;;;;;;;;;;5053955;28;20202;-73
2023/03/08 05:52:34;;;;;;;25.80;10.80;;;;;;;;;;5043685;28;20252;-73
2023/03/08 05:55:01;;;;;;;20.30;8.30;;;;;;;;;;5033796;28;20206;-73
2023/03/08 05:57:29;;;;;;;21.60;11.35;;;;;;;;;;5034416;28;20233;-73
2023/03/08 05:59:56;;;;;;;23.15;9.68;;;;;;;;;;5053521;28;20202;-73
2023/03/08 06:02:23;;;;;;;19.50;10.32;;;;;;;;;;5042896;28;20265;-73
2023/03/08 06:04:50;;;;;;;17.38;11.45;;;;;;;;;;5033648;28;20203;-73
2023/03/08 06:07:19;;;;;;;17.70;9.48;;;;;;;;;;5033834;28;20199;-72
2023/03/08 06:09:46;;;;;;;16.67;9.90;;;;;;;;;;5052771;28;20664;-72
2023/03/08 06:12:13;;;;;;;16.77;10.05;;;;;;;;;;5053084;28;20584;-72
2023/03/08 06:14:40;;;;;;;15.90;8.43;;;;;;;;;;5052660;28;20203;-72
2023/03/08 06:17:07;;;;;;;16.13;8.77;;;;;;;;;;5038446;28;20203;-72
2023/03/08 06:19:34;;;;;;;17.80;9.38;;;;;;;;;;5032512;28;20195;-72
2023/03/08 06:22:01;;;;;;;19.48;8.77;;;;;;;;;;5032822;28;20203;-73
2023/03/08 06:24:30;;;;;;;24.80;11.73;;;;;;;;;;5032402;28;20219;-72
2023/03/08 06:26:58;;;;;;;24.20;9.40;;;;;;;;;;5033057;28;20211;-72
2023/03/08 06:29:25;;;;;;;24.55;10.60;;;;;;;;;;5032824;28;20215;-73
2023/03/08 06:31:52;;;;;;;18.80;8.40;;;;;;;;;;5032858;28;20578;-72
2023/03/08 06:34:20;;;;;;;23.38;10.60;;;;;;;;;;5039217;28;20218;-72
2023/03/08 06:36:47;;;;;;;17.42;10.02;;;;;;;;;;5052838;28;20202;-72
2023/03/08 06:39:14;;;;;;;18.35;9.10;;;;;;;;;;5048172;28;20231;-71
2023/03/08 06:41:43;;;;;;;24.70;9.68;;;;;;;;;;5032416;28;20203;-72
2023/03/08 06:44:10;;;;;;;18.52;8.57;;;;;;;;;;5032882;28;20230;-72
2023/03/08 06:46:37;;;;;;;20.80;10.18;;;;;;;;;;5032285;28;20676;-72
2023/03/08 06:49:06;;;;;;;14.05;6.70;;;;;;;;;;5031818;28;20227;-72
2023/03/08 06:51:33;;;;;;;16.20;8.73;;;;;;;;;;5031241;28;20700;-73
2023/03/08 06:54:00;;;;;;;16.55;7.60;;;;;;;;;;5032612;28;20202;-72
2023/03/08 06:56:27;;;;;;;11.23;6.32;;;;;;;;;;5039021;28;20199;-73
2023/03/08 06:58:56;;;;;;;14.05;7.03;;;;;;;;;;5052157;28;20230;-72
2023/03/08 07:01:23;;;;;;;16.60;6.78;;;;;;;;;;5049926;28;20210;-73
2023/03/08 07:03:51;;;;;;;16.92;7.75;;;;;;;;;;5052075;28;20218;-73
2023/03/08 07:06:18;;;;;;;11.63;6.30;;;;;;;;;;5046325;28;20244;-73
2023/03/08 07:08:45;;;;;;;16.52;7.15;;;;;;;;;;5050846;28;20241;-73
2023/03/08 07:11:12;;;;;;;10.38;6.85;;;;;;;;;;5051893;28;20194;-72
2023/03/08 07:13:40;;;;;;;11.35;6.47;;;;;;;;;;5048732;28;20198;-72
2023/03/08 07:16:09;;;;;;;9.32;5.88;;;;;;;;;;5049934;28;20289;-73
2023/03/08 07:18:37;;;;;;;11.38;7.10;;;;;;;;;;5048151;28;20219;-72
2023/03/08 07:21:04;;;;;;;12.82;8.30;;;;;;;;;;5048909;28;20209;-71
2023/03/08 07:23:31;;;;;;;10.25;5.88;;;;;;;;;;5049541;28;20222;-71
2023/03/08 07:25:58;;;;;;;11.60;5.75;;;;;;;;;;5051006;28;20217;-75
2023/03/08 07:28:25;;;;;;;11.23;7.40;;;;;;;;;;5048909;28;20234;-76
2023/03/08 07:30:53;;;;;;;10.23;5.40;;;;;;;;;;5051834;28;20195;-72
2023/03/08 07:33:22;;;;;;;13.23;7.18;;;;;;;;;;5049562;28;20412;-71
2023/03/08 07:35:49;;;;;;;17.95;7.40;;;;;;;;;;5050337;28;20586;-75
2023/03/08 07:38:16;;;;;;;13.55;7.00;;;;;;;;;;5045330;28;20226;-75
2023/03/08 07:40:44;;;;;;;17.48;7.38;;;;;;;;;;5051542;28;20194;-73
2023/03/08 07:43:11;;;;;;;8.55;6.22;;;;;;;;;;5051209;28;20688;-72
2023/03/08 07:45:39;;;;;;;12.63;7.05;;;;;;;;;;5051651;28;20191;-73
2023/03/08 07:48:06;;;;;;;11.60;6.32;;;;;;;;;;5051119;28;20635;-74
2023/03/08 07:50:35;;;;;;;15.15;8.00;;;;;;;;;;5051673;28;20209;-74
2023/03/08 07:53:03;;;;;;;17.65;8.70;;;;;;;;;;5048851;28;20230;-74
2023/03/08 07:55:30;;;;;;;15.95;8.50;;;;;;;;;;5037769;28;20210;-74
2023/03/08 07:57:57;;;;;;;13.95;8.43;;;;;;;;;;5046641;28;20214;-74
2023/03/08 08:00:24;;;;;;;17.20;7.15;;;;;;;;;;5049000;28;20221;-74
2023/03/08 08:02:52;;;;;;;14.07;8.15;;;;;;;;;;5037493;28;20565;-74
2023/03/08 08:05:21;;;;;;;13.13;7.00;;;;;;;;;;5055032;28;20198;-74
2023/03/08 08:07:49;;;;;;;14.73;8.77;;;;;;;;;;5048924;28;20249;-74
2023/03/08 08:10:17;;;;;;;15.23;8.48;;;;;;;;;;5046577;28;20206;-73
2023/03/08 08:12:44;;;;;;;15.55;8.18;;;;;;;;;;5037425;28;20203;-74
2023/03/08 08:15:12;;;;;;;16.90;9.82;;;;;;;;;;5052143;28;20190;-74
2023/03/08 08:17:40;;;;;;;14.35;7.95;;;;;;;;;;5052035;28;20237;-74
2023/03/08 08:20:07;;;;;;;12.05;7.20;;;;;;;;;;5052107;28;20195;-74
2023/03/08 08:22:35;;;;;;;15.40;7.55;;;;;;;;;;5050571;28;20241;-73
2023/03/08 08:25:05;;;;;;;11.68;7.50;;;;;;;;;;5050443;28;20226;-73
2023/03/08 08:27:32;;;;;;;18.35;9.07;;;;;;;;;;5050757;28;20219;-73
2023/03/08 08:29:59;;;;;;;19.58;9.63;;;;;;;;;;5041379;28;20548;-73
2023/03/08 08:32:26;;;;;;;19.35;9.65;;;;;;;;;;5052483;28;20198;-73
2023/03/08 08:34:53;;;;;;;14.45;8.90;;;;;;;;;;5054345;28;20201;-73
2023/03/08 08:37:20;;;;;;;21.90;9.95;;;;;;;;;;5052334;28;20198;-74
2023/03/08 08:39:47;;;;;;;19.23;9.95;;;;;;;;;;5049457;28;20195;-73
2023/03/08 08:42:15;;;;;;;18.55;9.25;;;;;;;;;;5049983;28;20256;-73
2023/03/08 08:44:42;;;;;;;14.38;9.93;;;;;;;;;;5054540;28;20211;-73
2023/03/08 08:47:10;;;;;;;19.35;9.98;;;;;;;;;;5051359;28;20680;-74
2023/03/08 08:49:37;;;;;;;25.25;12.20;;;;;;;;;;5050453;28;20572;-73
2023/03/08 08:52:04;;;;;;;20.08;9.77;;;;;;;;;;5043022;28;20575;-73
2023/03/08 08:54:32;;;;;;;14.88;9.27;;;;;;;;;;5049532;28;20194;-73
2023/03/08 08:56:59;;;;;;;19.13;10.70;;;;;;;;;;5052461;28;20202;-75
2023/03/08 08:59:28;;;;;;;18.75;9.55;;;;;;;;;;5049664;28;20712;-75
2023/03/08 09:01:55;;;;;;;17.73;10.05;;;;;;;;;;5049896;28;20729;-74
2023/03/08 09:04:22;;;;;;;22.52;10.75;;;;;;;;;;5048109;28;20210;-74
2023/03/08 09:06:49;;;;;;;16.38;9.93;;;;;;;;;;5053164;28;20199;-75
2023/03/08 09:09:18;;;;;;;20.33;11.95;;;;;;;;;;5052598;28;20238;-73
2023/03/08 09:11:46;;;;;;;18.17;10.13;;;;;;;;;;5047569;28;20202;-73
2023/03/08 09:14:13;;;;;;;22.63;11.75;;;;;;;;;;5052425;28;20201;-73
2023/03/08 09:16:42;;;;;;;18.73;10.55;;;;;;;;;;5054667;28;20205;-73
2023/03/08 09:19:09;;;;;;;22.33;11.43;;;;;;;;;;5053659;28;20226;-73
2023/03/08 09:21:36;;;;;;;18.48;10.75;;;;;;;;;;5053376;28;20225;-73
2023/03/08 09:24:04;;;;;;;20.02;12.10;;;;;;;;;;5054148;28;20249;-75
2023/03/08 09:26:32;;;;;;;22.67;11.25;;;;;;;;;;5039117;28;20274;-76
2023/03/08 09:29:03;;;;;;;25.45;11.13;;;;;;;;;;5051911;28;20226;-75
2023/03/08 09:31:31;;;;;;;18.20;10.48;;;;;;;;;;5051583;28;20264;-75
2023/03/08 09:33:59;;;;;;;19.23;10.98;;;;;;;;;;5053512;28;20187;-75
2023/03/08 09:36:28;;;;;;;20.88;10.75;;;;;;;;;;5053861;28;20225;-74
2023/03/08 09:38:56;;;;;;;19.55;11.20;;;;;;;;;;5044138;28;20223;-75
2023/03/08 09:41:33;;;;;;;23.65;11.85;;;;;;;;;;5047961;28;20207;-75
2023/03/08 09:44:09;;;;;;;22.00;11.63;;;;;;;;;;5044631;28;20218;-75
2023/03/08 09:46:38;;;;;;;19.48;10.20;;;;;;;;;;5051610;28;20206;-75
2023/03/08 09:49:11;;;;;;;23.30;13.93;;;;;;;;;;5051967;28;20223;-76
2023/03/08 09:51:40;;;;;;;23.40;13.07;;;;;;;;;;5052069;28;20230;-76
2023/03/08 09:54:08;;;;;;;20.80;12.15;;;;;;;;;;5053602;28;20191;-75
2023/03/08 09:56:38;;;;;;;27.13;12.70;;;;;;;;;;5052824;28;20207;-75
2023/03/08 09:59:07;;;;;;;21.02;11.35;;;;;;;;;;5053193;28;20218;-77
2023/03/08 10:01:37;;;;;;;20.80;11.52;;;;;;;;;;5051224;28;20325;-75
2023/03/08 10:04:15;;;;;;;18.95;11.13;;;;;;;;;;5042643;28;20303;-75
2023/03/08 10:06:44;;;;;;;19.17;10.88;;;;;;;;;;5053508;28;20583;-74
2023/03/08 10:09:18;;;;;;;23.20;11.63;;;;;;;;;;5049290;28;20714;-75
2023/03/08 10:11:54;;;;;;;20.85;9.80;;;;;;;;;;5052874;28;20202;-75
2023/03/08 10:14:24;;;;;;;18.13;11.73;;;;;;;;;;5049890;28;20636;-74
2023/03/08 10:16:53;;;;;;;24.38;12.85;;;;;;;;;;5048969;28;20195;-75
2023/03/08 10:19:24;;;;;;;23.25;11.23;;;;;;;;;;5047644;28;20226;-74
2023/03/08 10:21:52;;;;;;;20.02;11.57;;;;;;;;;;5050899;28;20656;-75
2023/03/08 10:24:25;;;;;;;22.33;14.75;;;;;;;;;;5050530;28;20210;-74
2023/03/08 10:26:53;;;;;;;13.70;9.90;;;;;;;;;;5052461;28;20553;-74
2023/03/08 10:29:20;;;;;;;23.48;11.50;;;;;;;;;;5051976;28;20211;-75
2023/03/08 10:31:47;;;;;;;21.02;13.20;;;;;;;;;;5052456;28;20245;-74
2023/03/08 10:34:16;;;;;;;30.83;14.57;;;;;;;;;;5048009;28;20237;-74
2023/03/08 10:36:52;;;;;;;21.83;12.85;;;;;;;;;;5051894;28;20202;-75
2023/03/08 10:39:19;;;;;;;18.50;11.10;;;;;;;;;;5048476;28;20246;-75
2023/03/08 10:41:48;;;;;;;23.70;14.55;;;;;;;;;;5052196;28;20194;-75
2023/03/08 10:44:16;;;;;;;28.70;13.70;;;;;;;;;;5045278;28;20291;-74
2023/03/08 10:46:47;;;;;;;22.95;12.70;;;;;;;;;;5052732;28;20195;-74
2023/03/08 10:49:16;;;;;;;22.83;12.32;;;;;;;;;;5047393;28;20211;-75
2023/03/08 10:51:55;;;;;;;25.55;13.32;;;;;;;;;;5051064;28;20199;-81
2023/03/08 10:54:22;;;;;;;21.58;11.93;;;;;;;;;;5045933;28;20281;-75
2023/03/08 10:56:53;;;;;;;22.05;12.25;;;;;;;;;;5052514;28;20194;-74
2023/03/08 10:59:26;;;;;;;26.27;12.02;;;;;;;;;;5045924;28;20810;-74
2023/03/08 11:01:55;;;;;;;24.73;12.20;;;;;;;;;;5048668;28;20206;-74
2023/03/08 11:04:22;;;;;;;20.45;11.95;;;;;;;;;;5048355;28;20217;-75
2023/03/08 11:06:50;;;;;;;19.20;11.55;;;;;;;;;;5050517;28;20289;-75
2023/03/08 11:09:23;;;;;;;17.95;11.85;;;;;;;;;;5050379;28;20580;-75
2023/03/08 11:11:50;;;;;;;18.70;11.77;;;;;;;;;;5052020;28;20615;-76
2023/03/08 11:14:17;;;;;;;23.50;12.32;;;;;;;;;;5051834;28;20202;-76
2023/03/08 11:17:02;;;;;;;25.35;13.93;;;;;;;;;;5051594;28;20194;-75
2023/03/08 11:19:32;;;;;;;19.35;11.93;;;;;;;;;;5052188;28;20202;-76
2023/03/08 11:22:04;;;;;;;18.10;10.95;;;;;;;;;;5045689;28;20249;-76
2023/03/08 11:24:38;;;;;;;19.95;11.60;;;;;;;;;;5049136;28;20217;-77
2023/03/08 11:27:12;;;;;;;20.33;12.13;;;;;;;;;;5050272;28;20198;-77
2023/03/08 11:29:46;;;;;;;21.73;12.55;;;;;;;;;;5051348;28;20564;-76
2023/03/08 11:32:20;;;;;;;33.65;11.95;;;;;;;;;;5048788;28;20202;-76
2023/03/08 11:35:08;;;;;;;24.02;12.07;;;;;;;;;;5063126;28;20651;-76
2023/03/08 11:37:35;;;;;;;22.60;12.10;;;;;;;;;;5075213;22;20300;31
2023/03/08 11:40:08;;;;;;;22.80;13.75;;;;;;;;;;4969225;28;20331;-75
2023/03/08 11:42:41;;;;;;;21.75;11.45;;;;;;;;;;4969721;28;20227;-84
2023/03/08 11:45:16;;;;;;;17.10;11.60;;;;;;;;;;4962430;28;20228;-76
2023/03/08 11:48:02;;;;;;;23.98;12.93;;;;;;;;;;4957959;28;20667;-76
2023/03/08 11:50:32;;;;;;;23.85;12.43;;;;;;;;;;4972144;28;20623;-76
2023/03/08 11:53:06;;;;;;;19.85;10.90;;;;;;;;;;4975005;28;20197;-76
2023/03/08 11:55:46;;;;;;;19.92;11.05;;;;;;;;;;4968457;28;20194;-77
2023/03/08 11:58:19;;;;;;;18.38;11.18;;;;;;;;;;4977220;28;20224;-78
2023/03/08 12:00:47;;;;;;;22.00;12.18;;;;;;;;;;4982414;28;20231;-78
2023/03/08 12:03:15;;;;;;;24.00;12.90;;;;;;;;;;4979304;28;20205;-78
2023/03/08 12:05:44;;;;;;;18.15;11.68;;;;;;;;;;4975112;28;20225;-78
2023/03/08 12:08:14;;;;;;;19.02;11.13;;;;;;;;;;4990398;28;20216;-78
2023/03/08 12:10:46;;;;;;;24.45;13.50;;;;;;;;;;4978799;28;20208;-78
2023/03/08 12:13:17;;;;;;;18.30;11.45;;;;;;;;;;4962435;28;20299;-78
2023/03/08 12:15:47;;;;;;;20.05;11.35;;;;;;;;;;4973219;28;20204;-79
2023/03/08 12:18:16;;;;;;;21.17;12.38;;;;;;;;;;4964470;28;20228;-77
2023/03/08 12:20:44;;;;;;;19.20;12.25;;;;;;;;;;4980945;28;20204;-77
2023/03/08 12:23:17;;;;;;;21.70;11.82;;;;;;;;;;4973242;28;20218;-77
2023/03/08 12:25:48;;;;;;;15.15;11.80;;;;;;;;;;4989302;28;20203;-77
2023/03/08 12:28:19;;;;;;;24.70;12.93;;;;;;;;;;4968119;28;20227;-77
2023/03/08 12:30:52;;;;;;;19.40;12.25;;;;;;;;;;4986810;28;20205;-77
2023/03/08 12:33:19;;;;;;;16.92;12.43;;;;;;;;;;4972149;28;20193;-77
2023/03/08 12:35:53;;;;;;;20.70;12.77;;;;;;;;;;4976484;28;20226;-77
2023/03/08 12:38:31;;;;;;;22.05;12.60;;;;;;;;;;4962261;28;20225;-77
2023/03/08 12:41:00;;;;;;;17.92;11.82;;;;;;;;;;4972613;28;20197;-77
2023/03/08 12:43:31;;;;;;;15.68;10.95;;;;;;;;;;4960740;28;20742;-77
2023/03/08 12:46:02;;;;;;;19.40;13.32;;;;;;;;;;4980048;28;20202;-77
2023/03/08 12:48:31;;;;;;;22.67;13.05;;;;;;;;;;4984009;28;20221;-77
2023/03/08 12:51:00;;;;;;;19.08;12.18;;;;;;;;;;4977501;28;20198;-77
2023/03/08 12:53:31;;;;;;;24.05;13.05;;;;;;;;;;4979049;28;20212;-76
2023/03/08 12:56:05;;;;;;;18.25;11.85;;;;;;;;;;4980834;28;20253;-77
2023/03/08 12:58:34;;;;;;;19.67;11.85;;;;;;;;;;4981331;28;20738;-76
2023/03/08 13:01:02;;;;;;;19.00;12.50;;;;;;;;;;4983523;28;20202;-76
2023/03/08 13:03:36;;;;;;;16.58;10.57;;;;;;;;;;4987481;28;20555;-76
2023/03/08 13:06:15;;;;;;;19.95;13.60;;;;;;;;;;4993567;28;20189;-77
2023/03/08 13:08:44;;;;;;;23.70;12.68;;;;;;;;;;4966672;28;20604;-76
2023/03/08 13:11:13;;;;;;;25.33;14.05;;;;;;;;;;4971761;28;20206;-76
2023/03/08 13:13:46;;;;;;;22.42;13.85;;;;;;;;;;4976297;28;20205;-76
2023/03/08 13:16:21;;;;;;;18.30;11.35;;;;;;;;;;4978091;28;20240;-76
2023/03/08 13:18:49;;;;;;;16.35;11.68;;;;;;;;;;4978933;28;20263;-76
2023/03/08 13:21:20;;;;;;;20.58;12.80;;;;;;;;;;4974840;28;20204;-76
2023/03/08 13:23:50;;;;;;;24.00;12.32;;;;;;;;;;4966455;28;20209;-76
2023/03/08 13:26:26;;;;;;;21.30;11.30;;;;;;;;;;4973260;28;20217;-75
2023/03/08 13:28:53;;;;;;;21.13;11.75;;;;;;;;;;4959662;28;20216;-75
2023/03/08 13:31:21;;;;;;;18.15;11.93;;;;;;;;;;4971508;28;20201;-76
2023/03/08 13:33:49;;;;;;;22.85;10.02;;;;;;;;;;4991923;28;20658;-76
2023/03/08 13:36:20;;;;;;;17.95;10.82;;;;;;;;;;4986817;28;20228;-76
2023/03/08 13:38:55;;;;;;;21.75;12.63;;;;;;;;;;4976816;28;20364;-76
2023/03/08 13:41:32;;;;;;;20.45;12.20;;;;;;;;;;4980040;28;20196;-76
2023/03/08 13:44:03;;;;;;;17.60;11.13;;;;;;;;;;4983355;28;20209;-76
2023/03/08 13:46:30;;;;;;;18.42;11.48;;;;;;;;;;4973901;28;20201;-75
2023/03/08 13:48:57;;;;;;;20.80;12.43;;;;;;;;;;4974894;28;20623;-75
2023/03/08 13:51:26;;;;;;;22.95;12.13;;;;;;;;;;4974976;28;20209;-76
2023/03/08 13:53:54;;;;;;;14.10;9.93;;;;;;;;;;4975099;28;20268;-76
2023/03/08 13:56:23;;;;;;;17.25;12.02;;;;;;;;;;4974699;28;20217;-76
2023/03/08 13:58:53;;;;;;;15.52;10.23;;;;;;;;;;4973839;28;20228;-75
2023/03/08 14:01:22;;;;;;;16.77;10.77;;;;;;;;;;4973290;28;20300;-77
2023/03/08 14:03:49;;;;;;;17.70;10.95;;;;;;;;;;4955448;29;20253;-76
2023/03/08 14:06:18;;;;;;;19.98;11.82;;;;;;;;;;4955532;28;20202;-77
2023/03/08 14:08:46;;;;;;;16.23;10.85;;;;;;;;;;4964487;28;20304;-77
2023/03/08 14:11:15;;;;;;;21.40;11.70;;;;;;;;;;4974362;28;20256;-77
2023/03/08 14:13:46;;;;;;;17.27;10.93;;;;;;;;;;4974272;28;20228;-76
2023/03/08 14:16:25;;;;;;;15.77;11.50;;;;;;;;;;4974232;28;20213;-77
2023/03/08 14:18:52;;;;;;;19.60;12.25;;;;;;;;;;4972412;28;20228;-77
2023/03/08 14:21:20;;;;;;;18.33;11.93;;;;;;;;;;4973078;28;20229;-77
2023/03/08 14:23:48;;;;;;;17.55;11.63;;;;;;;;;;4974470;28;20202;-77
2023/03/08 14:26:26;;;;;;;19.27;12.52;;;;;;;;;;4958806;28;20209;-77
2023/03/08 14:29:03;;;;;;;16.85;11.50;;;;;;;;;;4970247;28;20698;-77
2023/03/08 14:31:31;;;;;;;21.38;13.10;;;;;;;;;;4965088;28;20276;-77
2023/03/08 14:33:59;;;;;;;21.25;11.20;;;;;;;;;;4960286;28;20207;-77
2023/03/08 14:36:27;;;;;;;20.95;11.55;;;;;;;;;;4954745;28;20432;-77